Greater Binghamton/Edwin A Link field
KBGM : now visible

Airfield :











YOU CAN JOIN US ON...

 
LOGIN :

Register | Disclaimer

   EN    FR    IT 

 









Legend :    VFR   Marginal VFR   IFR   Intensive IFR   Very Intensive IFR
Visi :
Ceiling :
>= 8 km
>= 3000ft
5 to 8 km
1000 to 3000 ft
1500m to 5 km
500 to 1000 ft
800 to 1500m
200 to 500 ft
< 800m
< 200 ft
Symbols :   Thunderstorms  Fog  Heavy snow  Heavy precipitations  Wind > 20 kt






- Airport Elevation : 1636 ft
- IATA code : BGM


KBGM - Greater Binghamton/Edwin A Link field

CURRENT METAR :
  • 120303Z 32010G16KT 9SM FEW023 BKN029 OVC036 M07/M10 A3037 RMK AO2 SNE00 P0000 T10671100

EXPIRED METARs :
  • 120253Z 32011G18KT 8SM -SN FEW010 BKN030 OVC036 M07/M10 A3036 RMK AO2 SNB0154 SLP307 P0000 60000 T10671100 53033
  • 120240Z 31012G18KT 5SM -SN BR SCT009 BKN015 OVC027 M07/M09 A3035 RMK AO2 SNB0154 P0000 T10671089
  • 120224Z 32009KT 3SM -SN BR FEW009 BKN014 OVC032 M07/M08 A3034 RMK AO2 SNB0154 P0000 T10671083
  • 120215Z 30010G17KT 3SM -SN FEW013 BKN028 OVC039 M06/M09 A3033 RMK AO2 SNB0154 P0000 T10611089
  • 120153Z 32014G20KT 10SM BKN039 BKN049 M06/M11 A3032 RMK AO2 PK WND 30026/0056 SLP292 T10561106
  • 120053Z 29012G29KT 10SM BKN050 M04/M14 A3029 RMK AO2 PK WND 29031/0028 SLP282 T10441139

TAF KBGM
Valid from the 12 at 00:00 until the 13 at 00:00 UTC


112328Z 1200/1224 28012G20KT P6SM BKN040
TEMPO 1201/1203 3SM -SHSN BKN025
FM120700 28010KT P6SM SCT040
FM121200 25006KT P6SM SKC



MET'MAP, your aeronautical weather chart ! - Copyright ORBIFLY December 2007 - Disclaimer

ORBIFLY MET'MAP TEAM :

Programming & Development : Alexandra Zaïnal
Concept & original design : Baudouin d'Aumeries
Assistance for programming : Marc-Olivier Méhu
Technical & hardware support : Manuel Goepfert

Contact : metmap@orbifly.com




SOURCES & CREDITS :

   NOAA       Earth
Advisory